sensor_id;sensor_type;location;lat;lon;timestamp;pressure;altitude;pressure_sealevel;temperature;humidity
62025;BME280;47978;49.118;12.146;2023-04-12T00:00:38;97145.56;;;1.96;87.83
62025;BME280;47978;49.118;12.146;2023-04-12T00:04:40;97140.78;;;1.82;87.95
62025;BME280;47978;49.118;12.146;2023-04-12T00:08:42;97142.22;;;1.62;88.53
62025;BME280;47978;49.118;12.146;2023-04-12T00:12:44;97133.94;;;1.79;87.58
62025;BME280;47978;49.118;12.146;2023-04-12T00:16:45;97128.81;;;1.55;88.73
62025;BME280;47978;49.118;12.146;2023-04-12T00:20:46;97123.31;;;1.50;89.15
62025;BME280;47978;49.118;12.146;2023-04-12T00:24:49;97128.09;;;1.65;88.59
62025;BME280;47978;49.118;12.146;2023-04-12T00:28:51;97119.53;;;1.56;88.89
62025;BME280;47978;49.118;12.146;2023-04-12T00:32:52;97114.53;;;1.43;89.45
62025;BME280;47978;49.118;12.146;2023-04-12T00:36:53;97092.28;;;1.51;88.93
62025;BME280;47978;49.118;12.146;2023-04-12T00:40:56;97084.91;;;1.52;89.60
62025;BME280;47978;49.118;12.146;2023-04-12T00:44:58;97082.41;;;1.45;90.33
62025;BME280;47978;49.118;12.146;2023-04-12T00:48:59;97082.31;;;1.67;90.22
62025;BME280;47978;49.118;12.146;2023-04-12T00:53:02;97071.16;;;1.69;90.08
62025;BME280;47978;49.118;12.146;2023-04-12T00:57:05;97067.44;;;1.80;89.87
62025;BME280;47978;49.118;12.146;2023-04-12T01:01:06;97060.91;;;1.81;89.62
62025;BME280;47978;49.118;12.146;2023-04-12T01:05:08;97070.88;;;1.65;89.66
62025;BME280;47978;49.118;12.146;2023-04-12T01:09:13;97056.53;;;1.80;89.14
62025;BME280;47978;49.118;12.146;2023-04-12T01:13:21;97045.81;;;1.68;90.30
62025;BME280;47978;49.118;12.146;2023-04-12T01:17:28;97044.47;;;1.71;90.93
62025;BME280;47978;49.118;12.146;2023-04-12T01:21:34;97042.06;;;1.74;91.65
62025;BME280;47978;49.118;12.146;2023-04-12T01:25:44;97034.78;;;1.85;91.77
62025;BME280;47978;49.118;12.146;2023-04-12T01:29:52;97033.78;;;2.01;91.78
62025;BME280;47978;49.118;12.146;2023-04-12T01:33:55;97019.09;;;2.08;91.90
62025;BME280;47978;49.118;12.146;2023-04-12T01:37:57;97018.38;;;2.22;91.83
62025;BME280;47978;49.118;12.146;2023-04-12T01:41:59;97005.53;;;2.18;91.62
62025;BME280;47978;49.118;12.146;2023-04-12T01:46:02;97005.75;;;2.06;91.06
62025;BME280;47978;49.118;12.146;2023-04-12T01:50:07;97010.50;;;2.26;90.26
62025;BME280;47978;49.118;12.146;2023-04-12T01:54:12;97003.91;;;2.17;90.00
62025;BME280;47978;49.118;12.146;2023-04-12T01:58:14;97000.09;;;2.23;90.01
62025;BME280;47978;49.118;12.146;2023-04-12T02:02:18;96989.69;;;2.15;90.29
62025;BME280;47978;49.118;12.146;2023-04-12T02:06:20;96978.22;;;2.13;90.50
62025;BME280;47978;49.118;12.146;2023-04-12T02:10:29;96976.09;;;2.20;90.22
62025;BME280;47978;49.118;12.146;2023-04-12T02:14:30;96976.91;;;2.20;90.16
62025;BME280;47978;49.118;12.146;2023-04-12T02:18:33;96981.25;;;2.16;90.47
62025;BME280;47978;49.118;12.146;2023-04-12T02:22:34;96973.69;;;2.39;89.63
62025;BME280;47978;49.118;12.146;2023-04-12T02:26:36;96969.31;;;2.33;89.35
62025;BME280;47978;49.118;12.146;2023-04-12T02:30:37;96957.59;;;2.32;90.09
62025;BME280;47978;49.118;12.146;2023-04-12T02:34:40;96948.31;;;2.33;90.00
62025;BME280;47978;49.118;12.146;2023-04-12T02:38:41;96938.16;;;2.18;90.23
62025;BME280;47978;49.118;12.146;2023-04-12T02:42:43;96938.25;;;2.44;88.91
62025;BME280;47978;49.118;12.146;2023-04-12T02:46:44;96948.34;;;2.43;89.00
62025;BME280;47978;49.118;12.146;2023-04-12T02:50:47;96935.81;;;2.42;89.16
62025;BME280;47978;49.118;12.146;2023-04-12T02:54:49;96934.19;;;2.46;89.41
62025;BME280;47978;49.118;12.146;2023-04-12T02:58:51;96928.47;;;2.48;89.93
62025;BME280;47978;49.118;12.146;2023-04-12T03:02:52;96924.66;;;2.54;89.98
62025;BME280;47978;49.118;12.146;2023-04-12T03:06:55;96922.72;;;2.44;90.40
62025;BME280;47978;49.118;12.146;2023-04-12T03:10:56;96912.34;;;2.36;90.31
62025;BME280;47978;49.118;12.146;2023-04-12T03:14:58;96909.59;;;2.31;90.41
62025;BME280;47978;49.118;12.146;2023-04-12T03:18:59;96913.47;;;2.56;89.69
62025;BME280;47978;49.118;12.146;2023-04-12T03:23:02;96912.09;;;2.53;90.16
62025;BME280;47978;49.118;12.146;2023-04-12T03:27:03;96908.28;;;2.64;89.45
62025;BME280;47978;49.118;12.146;2023-04-12T03:31:05;96911.06;;;2.75;88.44
62025;BME280;47978;49.118;12.146;2023-04-12T03:35:07;96915.72;;;2.79;88.93
62025;BME280;47978;49.118;12.146;2023-04-12T03:39:10;96909.72;;;2.92;89.35
62025;BME280;47978;49.118;12.146;2023-04-12T03:43:11;96903.72;;;2.90;89.49
62025;BME280;47978;49.118;12.146;2023-04-12T03:47:12;96902.59;;;2.81;89.99
62025;BME280;47978;49.118;12.146;2023-04-12T03:51:14;96906.97;;;2.87;88.89
62025;BME280;47978;49.118;12.146;2023-04-12T03:55:17;96895.25;;;2.82;89.40
62025;BME280;47978;49.118;12.146;2023-04-12T03:59:18;96888.44;;;3.00;89.01
62025;BME280;47978;49.118;12.146;2023-04-12T04:03:19;96897.72;;;3.14;88.99
62025;BME280;47978;49.118;12.146;2023-04-12T04:07:21;96912.19;;;3.09;90.88
62025;BME280;47978;49.118;12.146;2023-04-12T04:11:24;96887.06;;;3.12;91.46
62025;BME280;47978;49.118;12.146;2023-04-12T04:15:26;96894.72;;;3.36;92.44
62025;BME280;47978;49.118;12.146;2023-04-12T04:19:27;96893.28;;;3.79;92.68
62025;BME280;47978;49.118;12.146;2023-04-12T04:23:29;96901.97;;;3.92;92.11
62025;BME280;47978;49.118;12.146;2023-04-12T04:27:32;96888.81;;;4.04;91.60
62025;BME280;47978;49.118;12.146;2023-04-12T04:31:34;96886.84;;;4.15;90.93
62025;BME280;47978;49.118;12.146;2023-04-12T04:35:37;96881.34;;;4.30;90.15
62025;BME280;47978;49.118;12.146;2023-04-12T04:39:39;96868.44;;;4.36;90.16
62025;BME280;47978;49.118;12.146;2023-04-12T04:43:42;96883.44;;;4.43;89.96
62025;BME280;47978;49.118;12.146;2023-04-12T04:47:43;96881.72;;;4.58;89.95
62025;BME280;47978;49.118;12.146;2023-04-12T04:51:45;96879.16;;;4.77;89.11
62025;BME280;47978;49.118;12.146;2023-04-12T04:55:46;96870.38;;;4.74;89.13
62025;BME280;47978;49.118;12.146;2023-04-12T04:59:50;96867.66;;;4.74;88.95
62025;BME280;47978;49.118;12.146;2023-04-12T05:03:51;96868.66;;;4.84;88.77
62025;BME280;47978;49.118;12.146;2023-04-12T05:07:52;96867.19;;;5.02;88.42
62025;BME280;47978;49.118;12.146;2023-04-12T05:11:54;96868.25;;;5.06;88.02
62025;BME280;47978;49.118;12.146;2023-04-12T05:15:57;96862.47;;;5.12;87.45
62025;BME280;47978;49.118;12.146;2023-04-12T05:19:58;96859.44;;;5.09;87.71
62025;BME280;47978;49.118;12.146;2023-04-12T05:23:59;96866.28;;;5.11;87.65
62025;BME280;47978;49.118;12.146;2023-04-12T05:28:01;96857.19;;;5.21;87.66
62025;BME280;47978;49.118;12.146;2023-04-12T05:32:04;96863.94;;;5.29;86.84
62025;BME280;47978;49.118;12.146;2023-04-12T05:36:05;96851.50;;;5.41;87.02
62025;BME280;47978;49.118;12.146;2023-04-12T05:40:07;96843.50;;;5.45;86.67
62025;BME280;47978;49.118;12.146;2023-04-12T05:44:09;96835.50;;;5.49;86.47
62025;BME280;47978;49.118;12.146;2023-04-12T05:48:12;96821.50;;;5.55;86.31
62025;BME280;47978;49.118;12.146;2023-04-12T05:52:13;96819.56;;;5.56;86.55
62025;BME280;47978;49.118;12.146;2023-04-12T05:56:14;96814.66;;;5.77;86.37
62025;BME280;47978;49.118;12.146;2023-04-12T06:00:16;96813.47;;;5.83;86.49
62025;BME280;47978;49.118;12.146;2023-04-12T06:04:19;96805.16;;;5.93;85.86
62025;BME280;47978;49.118;12.146;2023-04-12T06:08:20;96804.16;;;6.08;85.49
62025;BME280;47978;49.118;12.146;2023-04-12T06:12:22;96797.94;;;6.21;85.06
62025;BME280;47978;49.118;12.146;2023-04-12T06:16:23;96813.16;;;6.51;84.68
62025;BME280;47978;49.118;12.146;2023-04-12T06:20:26;96813.97;;;6.71;83.63
62025;BME280;47978;49.118;12.146;2023-04-12T06:24:27;96798.91;;;6.87;83.52
62025;BME280;47978;49.118;12.146;2023-04-12T06:28:29;96790.19;;;6.99;82.57
62025;BME280;47978;49.118;12.146;2023-04-12T06:32:30;96797.88;;;7.16;81.85
62025;BME280;47978;49.118;12.146;2023-04-12T06:36:33;96780.91;;;7.28;81.32
62025;BME280;47978;49.118;12.146;2023-04-12T06:40:35;96775.25;;;7.52;80.91
62025;BME280;47978;49.118;12.146;2023-04-12T06:44:36;96771.19;;;7.63;80.02
62025;BME280;47978;49.118;12.146;2023-04-12T06:48:38;96759.34;;;7.62;79.93
62025;BME280;47978;49.118;12.146;2023-04-12T06:52:40;96754.25;;;7.70;79.59
62025;BME280;47978;49.118;12.146;2023-04-12T06:56:42;96754.25;;;7.56;79.04
62025;BME280;47978;49.118;12.146;2023-04-12T07:00:43;96759.47;;;7.57;79.74
62025;BME280;47978;49.118;12.146;2023-04-12T07:04:44;96758.53;;;7.34;79.54
62025;BME280;47978;49.118;12.146;2023-04-12T07:08:47;96748.09;;;7.31;79.90
62025;BME280;47978;49.118;12.146;2023-04-12T07:12:49;96744.84;;;7.29;80.92
62025;BME280;47978;49.118;12.146;2023-04-12T07:16:50;96750.84;;;7.31;80.50
62025;BME280;47978;49.118;12.146;2023-04-12T07:20:52;96754.81;;;7.25;80.55
62025;BME280;47978;49.118;12.146;2023-04-12T07:24:55;96743.44;;;7.32;80.10
62025;BME280;47978;49.118;12.146;2023-04-12T07:28:57;96738.13;;;7.35;81.20
62025;BME280;47978;49.118;12.146;2023-04-12T07:32:59;96727.44;;;7.34;80.35
62025;BME280;47978;49.118;12.146;2023-04-12T07:37:19;96711.41;;;7.08;81.14
62025;BME280;47978;49.118;12.146;2023-04-12T07:41:21;96713.28;;;7.27;81.71
62025;BME280;47978;49.118;12.146;2023-04-12T07:45:23;96709.50;;;7.36;81.48
62025;BME280;47978;49.118;12.146;2023-04-12T07:49:24;96700.66;;;7.39;82.48
62025;BME280;47978;49.118;12.146;2023-04-12T07:53:26;96701.38;;;7.59;81.28
62025;BME280;47978;49.118;12.146;2023-04-12T07:57:29;96693.09;;;7.59;80.82
62025;BME280;47978;49.118;12.146;2023-04-12T08:01:33;96692.69;;;7.65;81.99
62025;BME280;47978;49.118;12.146;2023-04-12T08:05:34;96684.22;;;7.76;81.28
62025;BME280;47978;49.118;12.146;2023-04-12T08:09:35;96687.97;;;7.94;81.13
62025;BME280;47978;49.118;12.146;2023-04-12T08:13:38;96684.19;;;8.03;80.29
62025;BME280;47978;49.118;12.146;2023-04-12T08:17:40;96681.25;;;8.00;81.27
62025;BME280;47978;49.118;12.146;2023-04-12T08:21:41;96675.19;;;8.11;80.15
62025;BME280;47978;49.118;12.146;2023-04-12T08:25:42;96666.69;;;8.22;80.43
62025;BME280;47978;49.118;12.146;2023-04-12T08:29:45;96670.91;;;8.42;79.44
62025;BME280;47978;49.118;12.146;2023-04-12T08:33:46;96655.66;;;8.58;78.71
62025;BME280;47978;49.118;12.146;2023-04-12T08:37:48;96646.50;;;8.49;78.56
62025;BME280;47978;49.118;12.146;2023-04-12T08:41:49;96641.94;;;8.67;78.39
62025;BME280;47978;49.118;12.146;2023-04-12T08:45:53;96633.66;;;8.67;77.72
62025;BME280;47978;49.118;12.146;2023-04-12T08:49:54;96626.25;;;8.76;78.25
62025;BME280;47978;49.118;12.146;2023-04-12T08:53:56;96628.97;;;8.67;78.22
62025;BME280;47978;49.118;12.146;2023-04-12T08:57:58;96617.88;;;8.90;77.83
62025;BME280;47978;49.118;12.146;2023-04-12T09:02:01;96611.16;;;9.05;76.86
62025;BME280;47978;49.118;12.146;2023-04-12T09:06:03;96609.63;;;9.30;76.07
62025;BME280;47978;49.118;12.146;2023-04-12T09:10:05;96603.22;;;9.60;75.46
62025;BME280;47978;49.118;12.146;2023-04-12T09:14:19;96596.09;;;9.68;75.45
62025;BME280;47978;49.118;12.146;2023-04-12T09:18:22;96601.78;;;9.89;74.94
62025;BME280;47978;49.118;12.146;2023-04-12T09:22:31;96590.25;;;10.13;74.14
62025;BME280;47978;49.118;12.146;2023-04-12T09:26:33;96578.84;;;9.54;74.82
62025;BME280;47978;49.118;12.146;2023-04-12T09:30:39;96575.91;;;8.93;77.06
62025;BME280;47978;49.118;12.146;2023-04-12T09:34:53;96574.34;;;9.09;76.95
62025;BME280;47978;49.118;12.146;2023-04-12T09:38:58;96563.34;;;9.18;76.59
62025;BME280;47978;49.118;12.146;2023-04-12T09:42:59;96561.88;;;9.12;78.22
62025;BME280;47978;49.118;12.146;2023-04-12T09:47:01;96553.75;;;9.15;77.67
62025;BME280;47978;49.118;12.146;2023-04-12T09:51:04;96544.72;;;9.41;77.60
62025;BME280;47978;49.118;12.146;2023-04-12T09:55:07;96539.06;;;9.55;76.16
62025;BME280;47978;49.118;12.146;2023-04-12T09:59:08;96541.84;;;9.63;76.52
62025;BME280;47978;49.118;12.146;2023-04-12T10:03:11;96524.59;;;9.23;78.37
62025;BME280;47978;49.118;12.146;2023-04-12T10:07:14;96529.75;;;9.16;79.49
62025;BME280;47978;49.118;12.146;2023-04-12T10:11:16;96508.22;;;9.44;79.22
62025;BME280;47978;49.118;12.146;2023-04-12T10:15:17;96505.31;;;9.49;78.71
62025;BME280;47978;49.118;12.146;2023-04-12T10:19:19;96492.16;;;9.55;78.20
62025;BME280;47978;49.118;12.146;2023-04-12T10:23:22;96490.53;;;9.54;78.48
62025;BME280;47978;49.118;12.146;2023-04-12T10:27:24;96489.56;;;9.50;80.71
62025;BME280;47978;49.118;12.146;2023-04-12T10:31:26;96471.69;;;9.38;80.78
62025;BME280;47978;49.118;12.146;2023-04-12T10:35:28;96470.09;;;9.46;80.33
62025;BME280;47978;49.118;12.146;2023-04-12T10:39:37;96460.66;;;9.64;79.77
62025;BME280;47978;49.118;12.146;2023-04-12T10:43:39;96456.75;;;9.91;79.66
62025;BME280;47978;49.118;12.146;2023-04-12T10:47:56;96446.00;;;9.99;79.59
62025;BME280;47978;49.118;12.146;2023-04-12T10:56:37;96445.69;;;9.91;80.49
62025;BME280;47978;49.118;12.146;2023-04-12T11:05:08;96425.59;;;9.74;81.35
62025;BME280;47978;49.118;12.146;2023-04-12T11:09:18;96406.28;;;9.74;82.05
62025;BME280;47978;49.118;12.146;2023-04-12T11:13:20;96400.72;;;9.91;82.97
62025;BME280;47978;49.118;12.146;2023-04-12T11:17:22;96404.75;;;10.02;83.47
62025;BME280;47978;49.118;12.146;2023-04-12T11:21:25;96415.84;;;9.85;82.40
62025;BME280;47978;49.118;12.146;2023-04-12T11:25:27;96417.47;;;9.77;82.84
62025;BME280;47978;49.118;12.146;2023-04-12T11:29:30;96409.34;;;9.63;83.70
62025;BME280;47978;49.118;12.146;2023-04-12T11:33:32;96401.69;;;9.86;83.95
62025;BME280;47978;49.118;12.146;2023-04-12T11:37:33;96392.66;;;10.16;81.46
62025;BME280;47978;49.118;12.146;2023-04-12T11:41:35;96393.50;;;10.16;83.09
62025;BME280;47978;49.118;12.146;2023-04-12T11:45:37;96397.69;;;10.31;83.50
62025;BME280;47978;49.118;12.146;2023-04-12T11:49:41;96388.25;;;10.32;83.93
62025;BME280;47978;49.118;12.146;2023-04-12T11:53:43;96369.28;;;10.04;83.66
62025;BME280;47978;49.118;12.146;2023-04-12T11:57:45;96366.84;;;10.11;83.81
62025;BME280;47978;49.118;12.146;2023-04-12T12:01:51;96357.41;;;10.12;84.16
62025;BME280;47978;49.118;12.146;2023-04-12T12:05:54;96350.53;;;10.36;84.47
62025;BME280;47978;49.118;12.146;2023-04-12T12:09:56;96347.84;;;10.48;83.10
62025;BME280;47978;49.118;12.146;2023-04-12T12:13:57;96346.81;;;10.83;81.57
62025;BME280;47978;49.118;12.146;2023-04-12T12:18:00;96333.06;;;10.95;81.82
62025;BME280;47978;49.118;12.146;2023-04-12T12:22:09;96337.06;;;10.55;83.03
62025;BME280;47978;49.118;12.146;2023-04-12T12:26:17;96335.09;;;10.65;83.18
62025;BME280;47978;49.118;12.146;2023-04-12T12:30:19;96330.50;;;10.90;82.47
62025;BME280;47978;49.118;12.146;2023-04-12T12:34:22;96315.78;;;11.19;81.30
62025;BME280;47978;49.118;12.146;2023-04-12T12:38:23;96316.75;;;11.02;81.30
62025;BME280;47978;49.118;12.146;2023-04-12T12:42:32;96318.91;;;10.96;81.90
62025;BME280;47978;49.118;12.146;2023-04-12T12:46:34;96315.94;;;11.01;83.21
62025;BME280;47978;49.118;12.146;2023-04-12T12:50:39;96313.44;;;11.09;81.82
62025;BME280;47978;49.118;12.146;2023-04-12T12:54:41;96302.88;;;11.23;82.91
62025;BME280;47978;49.118;12.146;2023-04-12T12:58:42;96306.16;;;11.37;80.37
62025;BME280;47978;49.118;12.146;2023-04-12T13:02:44;96301.03;;;11.48;81.09
62025;BME280;47978;49.118;12.146;2023-04-12T13:06:47;96289.84;;;11.23;81.84
62025;BME280;47978;49.118;12.146;2023-04-12T13:10:48;96285.75;;;11.09;83.37
62025;BME280;47978;49.118;12.146;2023-04-12T13:14:50;96265.63;;;11.20;83.73
62025;BME280;47978;49.118;12.146;2023-04-12T13:18:58;96262.75;;;11.62;83.00
62025;BME280;47978;49.118;12.146;2023-04-12T13:23:01;96256.03;;;11.97;81.21
62025;BME280;47978;49.118;12.146;2023-04-12T13:27:02;96243.78;;;12.10;80.71
62025;BME280;47978;49.118;12.146;2023-04-12T13:31:04;96249.31;;;11.85;81.90
62025;BME280;47978;49.118;12.146;2023-04-12T13:35:06;96244.75;;;11.68;82.29
62025;BME280;47978;49.118;12.146;2023-04-12T13:39:08;96230.41;;;11.87;82.12
62025;BME280;47978;49.118;12.146;2023-04-12T13:43:10;96209.16;;;11.91;80.53
62025;BME280;47978;49.118;12.146;2023-04-12T13:47:11;96212.28;;;12.02;80.53
62025;BME280;47978;49.118;12.146;2023-04-12T13:51:13;96206.81;;;11.81;79.98
62025;BME280;47978;49.118;12.146;2023-04-12T13:55:15;96206.44;;;11.46;80.65
62025;BME280;47978;49.118;12.146;2023-04-12T13:59:17;96196.31;;;11.05;81.95
62025;BME280;47978;49.118;12.146;2023-04-12T14:03:18;96199.59;;;10.86;82.90
62025;BME280;47978;49.118;12.146;2023-04-12T14:07:19;96196.81;;;10.86;83.47
62025;BME280;47978;49.118;12.146;2023-04-12T14:11:22;96193.38;;;10.89;83.79
62025;BME280;47978;49.118;12.146;2023-04-12T14:15:24;96193.94;;;10.82;84.53
62025;BME280;47978;49.118;12.146;2023-04-12T14:19:25;96187.28;;;10.95;84.88
62025;BME280;47978;49.118;12.146;2023-04-12T14:23:26;96183.09;;;11.10;84.46
62025;BME280;47978;49.118;12.146;2023-04-12T14:27:29;96185.47;;;10.78;85.12
62025;BME280;47978;49.118;12.146;2023-04-12T14:31:31;96166.72;;;10.84;85.67
62025;BME280;47978;49.118;12.146;2023-04-12T14:35:32;96172.84;;;10.90;86.11
62025;BME280;47978;49.118;12.146;2023-04-12T14:39:34;96163.16;;;10.84;86.75
62025;BME280;47978;49.118;12.146;2023-04-12T14:43:36;96158.22;;;10.89;86.41
62025;BME280;47978;49.118;12.146;2023-04-12T14:47:38;96156.84;;;10.95;85.26
62025;BME280;47978;49.118;12.146;2023-04-12T14:51:39;96165.28;;;10.99;85.23
62025;BME280;47978;49.118;12.146;2023-04-12T14:55:40;96149.53;;;11.12;85.58
62025;BME280;47978;49.118;12.146;2023-04-12T14:59:43;96145.75;;;11.29;85.20
62025;BME280;47978;49.118;12.146;2023-04-12T15:03:44;96146.81;;;11.48;84.22
62025;BME280;47978;49.118;12.146;2023-04-12T15:07:46;96144.59;;;11.30;84.32
62025;BME280;47978;49.118;12.146;2023-04-12T15:11:49;96147.34;;;11.17;84.66
62025;BME280;47978;49.118;12.146;2023-04-12T15:15:52;96144.56;;;11.05;84.89
62025;BME280;47978;49.118;12.146;2023-04-12T15:19:54;96144.19;;;10.94;84.90
62025;BME280;47978;49.118;12.146;2023-04-12T15:23:55;96149.91;;;10.77;85.61
62025;BME280;47978;49.118;12.146;2023-04-12T15:27:57;96146.94;;;10.61;86.46
62025;BME280;47978;49.118;12.146;2023-04-12T15:32:00;96135.44;;;10.59;86.36
62025;BME280;47978;49.118;12.146;2023-04-12T15:36:01;96127.59;;;10.61;86.09
62025;BME280;47978;49.118;12.146;2023-04-12T15:40:03;96134.59;;;10.58;86.33
62025;BME280;47978;49.118;12.146;2023-04-12T15:44:05;96131.09;;;10.37;87.10
62025;BME280;47978;49.118;12.146;2023-04-12T15:48:08;96130.88;;;10.42;86.47
62025;BME280;47978;49.118;12.146;2023-04-12T15:52:09;96121.09;;;10.45;86.83
62025;BME280;47978;49.118;12.146;2023-04-12T15:56:10;96119.75;;;10.51;86.79
62025;BME280;47978;49.118;12.146;2023-04-12T16:00:12;96111.66;;;10.46;86.71
62025;BME280;47978;49.118;12.146;2023-04-12T16:04:15;96102.22;;;10.47;87.01
62025;BME280;47978;49.118;12.146;2023-04-12T16:08:17;96105.31;;;10.45;86.58
62025;BME280;47978;49.118;12.146;2023-04-12T16:12:18;96107.50;;;10.40;86.76
62025;BME280;47978;49.118;12.146;2023-04-12T16:16:20;96106.22;;;10.37;87.10
62025;BME280;47978;49.118;12.146;2023-04-12T16:20:24;96107.63;;;10.43;86.71
62025;BME280;47978;49.118;12.146;2023-04-12T16:24:25;96102.66;;;10.37;87.24
62025;BME280;47978;49.118;12.146;2023-04-12T16:28:26;96090.22;;;10.43;87.72
62025;BME280;47978;49.118;12.146;2023-04-12T16:32:28;96083.81;;;10.51;87.56
62025;BME280;47978;49.118;12.146;2023-04-12T16:36:31;96081.44;;;10.62;87.25
62025;BME280;47978;49.118;12.146;2023-04-12T16:40:32;96079.22;;;10.55;87.45
62025;BME280;47978;49.118;12.146;2023-04-12T16:44:34;96075.91;;;10.62;87.83
62025;BME280;47978;49.118;12.146;2023-04-12T16:48:35;96076.44;;;10.55;87.38
62025;BME280;47978;49.118;12.146;2023-04-12T16:52:38;96070.88;;;10.43;87.87
62025;BME280;47978;49.118;12.146;2023-04-12T16:56:41;96044.63;;;10.37;88.52
62025;BME280;47978;49.118;12.146;2023-04-12T17:00:42;96039.34;;;10.23;89.74
62025;BME280;47978;49.118;12.146;2023-04-12T17:04:43;96038.75;;;10.17;90.55
62025;BME280;47978;49.118;12.146;2023-04-12T17:08:46;96030.94;;;10.19;90.78
62025;BME280;47978;49.118;12.146;2023-04-12T17:12:48;96042.28;;;10.05;91.41
62025;BME280;47978;49.118;12.146;2023-04-12T17:16:50;96047.03;;;10.17;90.99
62025;BME280;47978;49.118;12.146;2023-04-12T17:20:51;96039.97;;;10.07;90.94
62025;BME280;47978;49.118;12.146;2023-04-12T17:24:54;96040.56;;;10.13;90.72
62025;BME280;47978;49.118;12.146;2023-04-12T17:28:55;96042.41;;;10.09;90.52
62025;BME280;47978;49.118;12.146;2023-04-12T17:32:57;96030.28;;;10.01;90.75
62025;BME280;47978;49.118;12.146;2023-04-12T17:36:58;96022.28;;;9.87;90.78
62025;BME280;47978;49.118;12.146;2023-04-12T17:41:01;96017.78;;;9.83;91.27
62025;BME280;47978;49.118;12.146;2023-04-12T17:45:02;96006.13;;;9.77;91.06
62025;BME280;47978;49.118;12.146;2023-04-12T17:49:04;96003.94;;;9.71;91.33
62025;BME280;47978;49.118;12.146;2023-04-12T17:53:06;95995.91;;;9.78;90.51
62025;BME280;47978;49.118;12.146;2023-04-12T17:57:08;96007.00;;;9.69;90.55
62025;BME280;47978;49.118;12.146;2023-04-12T18:01:10;96003.09;;;9.70;90.41
62025;BME280;47978;49.118;12.146;2023-04-12T18:05:11;95985.13;;;9.64;90.70
62025;BME280;47978;49.118;12.146;2023-04-12T18:09:13;95997.19;;;9.59;90.65
62025;BME280;47978;49.118;12.146;2023-04-12T18:13:15;96006.09;;;9.65;90.11
62025;BME280;47978;49.118;12.146;2023-04-12T18:17:17;96007.13;;;9.73;90.21
62025;BME280;47978;49.118;12.146;2023-04-12T18:21:18;96001.00;;;9.67;90.29
62025;BME280;47978;49.118;12.146;2023-04-12T18:25:20;95998.41;;;9.71;90.13
62025;BME280;47978;49.118;12.146;2023-04-12T18:29:22;96005.78;;;9.79;89.68
62025;BME280;47978;49.118;12.146;2023-04-12T18:33:24;96015.41;;;9.73;89.57
62025;BME280;47978;49.118;12.146;2023-04-12T18:37:25;96018.38;;;9.67;89.84
62025;BME280;47978;49.118;12.146;2023-04-12T18:41:27;96014.97;;;9.71;89.73
62025;BME280;47978;49.118;12.146;2023-04-12T18:45:29;96030.44;;;9.84;89.22
62025;BME280;47978;49.118;12.146;2023-04-12T18:49:31;96037.59;;;9.85;89.33
62025;BME280;47978;49.118;12.146;2023-04-12T18:53:32;96066.69;;;9.82;89.62
62025;BME280;47978;49.118;12.146;2023-04-12T18:57:33;96081.09;;;9.88;90.40
62025;BME280;47978;49.118;12.146;2023-04-12T19:01:36;96114.09;;;10.05;90.41
62025;BME280;47978;49.118;12.146;2023-04-12T19:05:37;96123.25;;;9.97;91.27
62025;BME280;47978;49.118;12.146;2023-04-12T19:09:39;96128.47;;;9.90;92.04
62025;BME280;47978;49.118;12.146;2023-04-12T19:13:40;96134.16;;;9.94;92.93
62025;BME280;47978;49.118;12.146;2023-04-12T19:17:43;96128.03;;;9.88;93.56
62025;BME280;47978;49.118;12.146;2023-04-12T19:21:44;96138.41;;;9.91;94.62
62025;BME280;47978;49.118;12.146;2023-04-12T19:25:46;96119.25;;;9.86;95.10
62025;BME280;47978;49.118;12.146;2023-04-12T19:29:47;96110.78;;;9.61;95.64
62025;BME280;47978;49.118;12.146;2023-04-12T19:33:50;96113.47;;;9.49;95.97
62025;BME280;47978;49.118;12.146;2023-04-12T19:37:51;96116.22;;;9.49;96.04
62025;BME280;47978;49.118;12.146;2023-04-12T19:41:53;96109.97;;;9.40;96.43
62025;BME280;47978;49.118;12.146;2023-04-12T19:45:54;96121.94;;;9.44;96.35
62025;BME280;47978;49.118;12.146;2023-04-12T19:49:57;96138.03;;;9.33;96.66
62025;BME280;47978;49.118;12.146;2023-04-12T19:53:58;96147.16;;;9.34;96.79
62025;BME280;47978;49.118;12.146;2023-04-12T19:58:00;96151.38;;;9.31;96.56
62025;BME280;47978;49.118;12.146;2023-04-12T20:02:01;96159.13;;;9.38;96.16
62025;BME280;47978;49.118;12.146;2023-04-12T20:06:04;96170.47;;;9.45;94.75
62025;BME280;47978;49.118;12.146;2023-04-12T20:10:06;96167.31;;;9.55;93.03
62025;BME280;47978;49.118;12.146;2023-04-12T20:14:08;96181.88;;;9.64;90.82
62025;BME280;47978;49.118;12.146;2023-04-12T20:18:09;96185.00;;;9.63;91.02
62025;BME280;47978;49.118;12.146;2023-04-12T20:22:12;96189.38;;;9.64;91.35
62025;BME280;47978;49.118;12.146;2023-04-12T20:26:14;96177.38;;;9.60;90.63
62025;BME280;47978;49.118;12.146;2023-04-12T20:30:15;96158.44;;;9.50;92.20
62025;BME280;47978;49.118;12.146;2023-04-12T20:34:16;96171.09;;;9.42;93.25
62025;BME280;47978;49.118;12.146;2023-04-12T20:38:19;96149.75;;;9.30;94.28
62025;BME280;47978;49.118;12.146;2023-04-12T20:42:21;96150.41;;;9.27;94.75
62025;BME280;47978;49.118;12.146;2023-04-12T20:46:22;96140.06;;;9.15;95.00
62025;BME280;47978;49.118;12.146;2023-04-12T20:50:23;96153.72;;;9.12;95.24
62025;BME280;47978;49.118;12.146;2023-04-12T20:54:26;96162.31;;;9.10;95.27
62025;BME280;47978;49.118;12.146;2023-04-12T20:58:28;96159.91;;;9.09;95.34
62025;BME280;47978;49.118;12.146;2023-04-12T21:02:29;96152.13;;;8.93;95.83
62025;BME280;47978;49.118;12.146;2023-04-12T21:06:31;96154.59;;;8.95;95.62
62025;BME280;47978;49.118;12.146;2023-04-12T21:10:34;96157.34;;;8.95;95.35
62025;BME280;47978;49.118;12.146;2023-04-12T21:14:35;96161.09;;;8.82;95.92
62025;BME280;47978;49.118;12.146;2023-04-12T21:18:37;96159.66;;;8.75;96.14
62025;BME280;47978;49.118;12.146;2023-04-12T21:22:39;96172.94;;;8.73;96.51
62025;BME280;47978;49.118;12.146;2023-04-12T21:26:42;96165.00;;;8.72;96.63